Time;durP1;ratioP1;P1;durP2;ratioP2;P2;SDS_P1;SDS_P2;PMS_P1;PMS_P2;Temp;Humidity;BMP_temperature;BMP_pressure;BME280_temperature;BME280_humidity;BME280_pressure;Samples;Min_cycle;Max_cycle;Signal;HPM_P1;HPM_P2
2022/10/24 00:02:00;;;;;;;74.38;41.33;;;;;;;;;;6161242;28;20396;-75
2022/10/24 00:05:00;;;;;;;69.13;39.22;;;;;;;;;;6160412;28;20051;-75
2022/10/24 00:08:00;;;;;;;70.68;39.95;;;;;;;;;;6157967;28;20081;-75
2022/10/24 00:11:01;;;;;;;65.97;36.93;;;;;;;;;;6155620;28;20023;-75
2022/10/24 00:14:01;;;;;;;82.63;46.10;;;;;;;;;;6155420;28;20023;-75
2022/10/24 00:17:02;;;;;;;82.40;45.20;;;;;;;;;;6166792;28;20042;-75
2022/10/24 00:20:03;;;;;;;79.05;42.83;;;;;;;;;;6145762;29;20034;-75
2022/10/24 00:23:03;;;;;;;89.03;49.08;;;;;;;;;;6170264;28;20026;-74
2022/10/24 00:26:04;;;;;;;76.57;47.00;;;;;;;;;;6174859;28;20080;-75
2022/10/24 00:29:04;;;;;;;81.32;44.88;;;;;;;;;;6172911;28;20266;-75
2022/10/24 00:32:05;;;;;;;67.73;41.47;;;;;;;;;;6172828;28;20038;-75
2022/10/24 00:35:05;;;;;;;73.35;42.90;;;;;;;;;;6173717;28;20015;-75
2022/10/24 00:38:05;;;;;;;75.23;46.20;;;;;;;;;;6175927;28;20102;-75
2022/10/24 00:41:06;;;;;;;74.85;46.92;;;;;;;;;;6173923;28;20023;-75
2022/10/24 00:44:18;;;;;;;93.80;53.47;;;;;;;;;;6157428;28;19999;-75
2022/10/24 00:47:20;;;;;;;85.35;52.58;;;;;;;;;;6168096;28;20038;-75
2022/10/24 00:50:20;;;;;;;;;;;;;;;;;;6165233;28;20064;-75
2022/10/24 00:53:21;;;;;;;113.68;62.63;;;;;;;;;;6174114;28;19909;-75
2022/10/24 00:56:23;;;;;;;92.65;56.70;;;;;;;;;;6174227;28;20025;-75
2022/10/24 00:59:24;;;;;;;92.63;54.70;;;;;;;;;;6163382;28;20107;-75
2022/10/24 01:02:25;;;;;;;75.82;45.40;;;;;;;;;;6158177;28;20383;-75
2022/10/24 01:05:27;;;;;;;71.30;45.10;;;;;;;;;;6173293;28;20034;-75
2022/10/24 01:08:35;;;;;;;82.25;50.45;;;;;;;;;;6155797;28;20023;-74
2022/10/24 01:11:54;;;;;;;94.93;56.78;;;;;;;;;;6172471;28;20023;-74
2022/10/24 01:15:02;;;;;;;107.07;59.83;;;;;;;;;;6149931;28;20035;-74
2022/10/24 01:18:13;;;;;;;101.25;59.25;;;;;;;;;;6162338;28;20027;-74
2022/10/24 01:21:23;;;;;;;95.72;58.50;;;;;;;;;;6167825;28;20102;-74
2022/10/24 01:24:43;;;;;;;83.95;45.45;;;;;;;;;;6184015;28;20015;-74
2022/10/24 01:27:50;;;;;;;82.22;47.50;;;;;;;;;;6156926;28;20027;-74
2022/10/24 01:31:07;;;;;;;78.25;49.92;;;;;;;;;;6159260;28;20082;-75
2022/10/24 01:34:11;;;;;;;79.18;46.03;;;;;;;;;;6171653;28;20041;-74
2022/10/24 01:37:22;;;;;;;82.72;48.22;;;;;;;;;;6172999;28;20023;-74
2022/10/24 01:40:26;;;;;;;78.65;47.10;;;;;;;;;;6161687;28;20426;-74
2022/10/24 01:43:30;;;;;;;82.22;47.90;;;;;;;;;;6172520;28;20030;-75
2022/10/24 01:46:36;;;;;;;89.95;50.25;;;;;;;;;;6172011;28;20474;-75
2022/10/24 01:49:38;;;;;;;95.55;55.45;;;;;;;;;;6176706;28;20023;-75
2022/10/24 01:52:40;;;;;;;109.20;60.28;;;;;;;;;;6171437;28;20026;-75
2022/10/24 01:55:41;;;;;;;104.10;58.60;;;;;;;;;;6173615;28;20015;-75
2022/10/24 01:58:41;;;;;;;105.57;57.73;;;;;;;;;;6172974;28;20595;-75
2022/10/24 02:01:41;;;;;;;94.15;54.03;;;;;;;;;;6178265;28;20375;-75
2022/10/24 02:05:05;;;;;;;93.97;52.67;;;;;;;;;;6154115;28;20023;-75
2022/10/24 02:08:07;;;;;;;84.65;48.97;;;;;;;;;;6169963;28;20066;-74
2022/10/24 02:11:08;;;;;;;95.03;56.33;;;;;;;;;;6173018;28;20023;-74
2022/10/24 02:14:11;;;;;;;94.50;58.08;;;;;;;;;;6190179;28;20022;-75
2022/10/24 02:17:12;;;;;;;103.18;59.83;;;;;;;;;;6182060;28;20027;-75
2022/10/24 02:20:12;;;;;;;106.10;59.00;;;;;;;;;;6155642;28;20382;-74
2022/10/24 02:23:31;;;;;;;83.50;47.50;;;;;;;;;;6164191;28;20694;-74
2022/10/24 02:26:42;;;;;;;75.47;44.40;;;;;;;;;;6190461;28;20042;-74
2022/10/24 02:30:04;;;;;;;74.85;44.63;;;;;;;;;;6175845;28;20054;-74
2022/10/24 02:33:04;;;;;;;71.13;42.63;;;;;;;;;;6176424;28;20019;-74
2022/10/24 02:36:05;;;;;;;80.10;46.90;;;;;;;;;;6170748;28;20494;-74
2022/10/24 02:39:07;;;;;;;68.75;40.30;;;;;;;;;;6176966;28;20069;-74
2022/10/24 02:42:08;;;;;;;;;;;;;;;;;;6174414;28;20019;-74
2022/10/24 02:45:08;;;;;;;77.63;45.20;;;;;;;;;;6166431;28;19940;-74
2022/10/24 02:48:10;;;;;;;81.93;49.65;;;;;;;;;;6177750;28;20020;-75
2022/10/24 02:51:12;;;;;;;83.05;46.53;;;;;;;;;;6176491;28;20092;-75
2022/10/24 02:54:12;;;;;;;69.65;40.25;;;;;;;;;;6169772;28;20027;-75
2022/10/24 02:57:14;;;;;;;71.00;42.88;;;;;;;;;;6168495;28;20567;-75
2022/10/24 03:00:14;;;;;;;65.63;40.67;;;;;;;;;;6174811;28;20089;-75
2022/10/24 03:03:14;;;;;;;58.57;35.47;;;;;;;;;;6174394;28;20015;-74
2022/10/24 03:06:14;;;;;;;63.13;34.60;;;;;;;;;;6172963;28;20049;-74
2022/10/24 03:09:14;;;;;;;56.78;33.65;;;;;;;;;;6174801;28;20033;-74
2022/10/24 03:12:15;;;;;;;49.95;29.77;;;;;;;;;;6175987;28;20122;-74
2022/10/24 03:15:15;;;;;;;51.20;31.27;;;;;;;;;;6178760;28;20077;-74
2022/10/24 03:18:15;;;;;;;57.95;33.30;;;;;;;;;;6171933;28;20022;-75
2022/10/24 03:21:16;;;;;;;59.57;33.70;;;;;;;;;;6161408;28;20015;-74
2022/10/24 03:24:16;;;;;;;63.03;37.50;;;;;;;;;;6176044;28;20254;-75
2022/10/24 03:27:16;;;;;;;61.08;36.58;;;;;;;;;;6153000;28;20018;-75
2022/10/24 03:30:16;;;;;;;62.10;33.00;;;;;;;;;;6157048;28;20154;-75
2022/10/24 03:33:17;;;;;;;59.40;33.40;;;;;;;;;;6151788;28;20162;-75
2022/10/24 03:36:17;;;;;;;51.20;30.03;;;;;;;;;;6158951;28;20015;-74
2022/10/24 03:39:20;;;;;;;56.50;32.33;;;;;;;;;;6175798;28;20459;-75
2022/10/24 03:42:20;;;;;;;52.60;31.05;;;;;;;;;;6175805;28;20600;-75
2022/10/24 03:45:20;;;;;;;52.90;30.70;;;;;;;;;;6186867;28;20014;-75
2022/10/24 03:48:20;;;;;;;50.58;29.27;;;;;;;;;;6175530;28;20138;-74
2022/10/24 03:51:21;;;;;;;52.42;31.13;;;;;;;;;;6171094;28;20011;-74
2022/10/24 03:54:21;;;;;;;52.80;31.42;;;;;;;;;;6166098;28;20098;-74
2022/10/24 03:57:21;;;;;;;48.72;30.08;;;;;;;;;;6146748;28;20023;-74
2022/10/24 04:00:21;;;;;;;57.88;33.60;;;;;;;;;;6173553;28;20038;-75
2022/10/24 04:03:22;;;;;;;63.80;33.50;;;;;;;;;;6175698;28;20018;-74
2022/10/24 04:06:22;;;;;;;54.67;29.83;;;;;;;;;;6159218;28;20431;-74
2022/10/24 04:09:22;;;;;;;49.08;27.52;;;;;;;;;;6174533;28;20073;-75
2022/10/24 04:12:23;;;;;;;47.80;29.55;;;;;;;;;;6175418;28;20034;-75
2022/10/24 04:15:23;;;;;;;51.53;30.37;;;;;;;;;;6150673;28;20019;-77
2022/10/24 04:18:23;;;;;;;61.72;30.20;;;;;;;;;;6174541;28;20023;-76
2022/10/24 04:21:23;;;;;;;53.83;29.53;;;;;;;;;;6156466;28;20369;-75
2022/10/24 04:24:23;;;;;;;42.70;25.10;;;;;;;;;;6173906;28;20773;-75
2022/10/24 04:27:24;;;;;;;43.25;25.50;;;;;;;;;;6174377;28;20266;-75
2022/10/24 04:30:25;;;;;;;38.50;24.57;;;;;;;;;;6174686;28;20367;-75
2022/10/24 04:33:25;;;;;;;41.73;22.33;;;;;;;;;;6175549;28;20093;-74
2022/10/24 04:36:25;;;;;;;42.22;25.55;;;;;;;;;;6175468;28;20482;-75
2022/10/24 04:39:25;;;;;;;44.87;24.00;;;;;;;;;;6176169;28;20069;-74
2022/10/24 04:42:26;;;;;;;41.17;23.77;;;;;;;;;;6177208;28;20102;-75
2022/10/24 04:45:26;;;;;;;40.12;22.02;;;;;;;;;;6172007;28;20020;-75
2022/10/24 04:48:26;;;;;;;40.95;21.98;;;;;;;;;;6163337;28;20513;-75
2022/10/24 04:51:27;;;;;;;38.70;22.83;;;;;;;;;;6163388;28;20031;-75
2022/10/24 04:54:27;;;;;;;40.33;23.63;;;;;;;;;;6164798;28;20468;-75
2022/10/24 04:57:27;;;;;;;38.33;22.27;;;;;;;;;;6171797;28;20115;-74
2022/10/24 05:00:27;;;;;;;37.67;22.83;;;;;;;;;;6169592;28;20265;-74
2022/10/24 05:03:27;;;;;;;44.00;25.45;;;;;;;;;;6157055;28;20029;-75
2022/10/24 05:06:28;;;;;;;40.90;23.75;;;;;;;;;;6162736;28;20054;-75
2022/10/24 05:09:28;;;;;;;36.60;23.83;;;;;;;;;;6160952;28;20057;-75
2022/10/24 05:12:28;;;;;;;36.47;23.00;;;;;;;;;;6172888;28;20085;-75
2022/10/24 05:15:28;;;;;;;41.40;23.23;;;;;;;;;;6151654;28;20018;-75
2022/10/24 05:18:29;;;;;;;42.00;21.67;;;;;;;;;;6164260;28;20058;-75
2022/10/24 05:21:29;;;;;;;34.80;22.17;;;;;;;;;;6147376;28;20045;-75
2022/10/24 05:24:29;;;;;;;37.83;22.70;;;;;;;;;;6167104;28;20061;-75
2022/10/24 05:27:29;;;;;;;35.45;23.45;;;;;;;;;;6171214;28;20395;-75
2022/10/24 05:30:30;;;;;;;43.57;24.47;;;;;;;;;;6171343;28;20039;-75
2022/10/24 05:33:30;;;;;;;39.30;24.13;;;;;;;;;;6154366;28;20034;-77
2022/10/24 05:36:30;;;;;;;42.83;23.77;;;;;;;;;;6170766;28;20049;-75
2022/10/24 05:39:30;;;;;;;40.53;25.05;;;;;;;;;;6171270;28;20057;-75
2022/10/24 05:42:30;;;;;;;48.58;26.98;;;;;;;;;;6158527;28;20990;-75
2022/10/24 05:45:31;;;;;;;44.45;27.05;;;;;;;;;;6171626;28;20799;-74
2022/10/24 05:48:31;;;;;;;41.37;24.63;;;;;;;;;;6171826;28;20027;-74
2022/10/24 05:51:31;;;;;;;35.35;22.77;;;;;;;;;;6174815;28;20023;-74
2022/10/24 05:54:31;;;;;;;43.40;26.20;;;;;;;;;;6177018;28;20023;-74
2022/10/24 05:57:32;;;;;;;39.90;25.13;;;;;;;;;;6174859;28;20035;-74
2022/10/24 06:00:32;;;;;;;33.90;21.40;;;;;;;;;;6152875;28;20023;-74
2022/10/24 06:03:33;;;;;;;38.10;23.90;;;;;;;;;;6162901;28;20109;-75
2022/10/24 06:06:37;;;;;;;42.40;25.80;;;;;;;;;;6169741;28;20110;-74
2022/10/24 06:09:38;;;;;;;42.38;27.10;;;;;;;;;;6175609;28;20438;-74
2022/10/24 06:12:39;;;;;;;48.30;28.20;;;;;;;;;;6172769;28;20019;-74
2022/10/24 06:15:42;;;;;;;43.27;27.83;;;;;;;;;;6175056;28;20537;-74
2022/10/24 06:18:42;;;;;;;41.08;27.25;;;;;;;;;;6162089;28;20030;-74
2022/10/24 06:21:43;;;;;;;41.70;25.83;;;;;;;;;;6166124;28;20030;-74
2022/10/24 06:24:43;;;;;;;35.60;24.47;;;;;;;;;;6172800;28;20037;-74
2022/10/24 06:27:43;;;;;;;39.10;24.23;;;;;;;;;;6176087;28;20018;-75
2022/10/24 06:30:46;;;;;;;39.37;25.70;;;;;;;;;;6168993;28;20023;-75
2022/10/24 06:33:47;;;;;;;36.67;23.15;;;;;;;;;;6163907;28;20023;-74
2022/10/24 06:36:47;;;;;;;38.40;25.33;;;;;;;;;;6167163;28;20479;-75
2022/10/24 06:39:47;;;;;;;37.25;22.50;;;;;;;;;;6162639;28;20507;-74
2022/10/24 06:42:47;;;;;;;32.43;23.37;;;;;;;;;;6170283;28;20303;-75
2022/10/24 06:45:48;;;;;;;37.80;24.30;;;;;;;;;;6149407;28;20034;-74
2022/10/24 06:48:52;;;;;;;34.93;23.60;;;;;;;;;;6167421;28;20449;-74
2022/10/24 06:51:52;;;;;;;33.60;22.98;;;;;;;;;;6162589;28;20110;-74
2022/10/24 06:54:52;;;;;;;29.80;20.40;;;;;;;;;;6174124;28;20039;-74
2022/10/24 06:57:53;;;;;;;28.97;18.40;;;;;;;;;;6170583;28;20061;-75
2022/10/24 07:00:53;;;;;;;28.43;19.03;;;;;;;;;;6173857;28;20061;-75
2022/10/24 07:03:53;;;;;;;26.73;17.23;;;;;;;;;;6170403;28;20015;-75
2022/10/24 07:06:53;;;;;;;26.77;17.07;;;;;;;;;;6159647;28;20082;-75
2022/10/24 07:09:55;;;;;;;28.20;18.53;;;;;;;;;;6157848;28;20411;-75
2022/10/24 07:12:55;;;;;;;28.30;19.95;;;;;;;;;;6154950;28;20070;-75
2022/10/24 07:15:55;;;;;;;25.33;17.07;;;;;;;;;;6159054;28;20031;-76
2022/10/24 07:18:56;;;;;;;25.00;16.03;;;;;;;;;;6165911;28;20462;-75
2022/10/24 07:21:56;;;;;;;20.93;13.83;;;;;;;;;;6165689;28;20023;-75
2022/10/24 07:24:56;;;;;;;18.90;11.70;;;;;;;;;;6167464;28;20102;-75
2022/10/24 07:27:56;;;;;;;17.63;11.47;;;;;;;;;;6169168;28;20066;-75
2022/10/24 07:30:56;;;;;;;17.20;10.80;;;;;;;;;;6169320;28;20446;-75
2022/10/24 07:33:57;;;;;;;14.53;10.27;;;;;;;;;;6174443;28;20209;-75
2022/10/24 07:36:57;;;;;;;12.13;8.00;;;;;;;;;;6162653;28;20030;-76
2022/10/24 07:39:58;;;;;;;12.13;7.25;;;;;;;;;;6153269;28;20032;-76
2022/10/24 07:42:58;;;;;;;15.77;7.60;;;;;;;;;;6158490;28;20019;-75
2022/10/24 07:45:58;;;;;;;10.70;6.47;;;;;;;;;;6160551;28;20379;-75
2022/10/24 07:48:58;;;;;;;12.67;6.33;;;;;;;;;;6178255;28;20023;-75
2022/10/24 07:51:59;;;;;;;9.73;6.10;;;;;;;;;;6159331;28;20510;-75
2022/10/24 07:54:59;;;;;;;15.23;7.23;;;;;;;;;;6164507;28;20068;-75
2022/10/24 07:57:59;;;;;;;12.37;6.53;;;;;;;;;;6155878;28;20114;-74
2022/10/24 08:01:03;;;;;;;10.13;5.67;;;;;;;;;;6158107;28;20023;-74
2022/10/24 08:04:03;;;;;;;12.38;6.70;;;;;;;;;;6156385;28;20399;-74
2022/10/24 08:07:04;;;;;;;14.97;7.23;;;;;;;;;;6160598;28;20067;-74
2022/10/24 08:10:04;;;;;;;11.27;6.33;;;;;;;;;;6158264;28;20518;-74
2022/10/24 08:13:04;;;;;;;13.80;5.83;;;;;;;;;;6163716;28;20460;-74
2022/10/24 08:16:06;;;;;;;8.63;5.30;;;;;;;;;;6168613;28;20026;-75
2022/10/24 08:19:06;;;;;;;11.77;5.55;;;;;;;;;;6175819;28;20030;-75
2022/10/24 08:22:07;;;;;;;11.10;5.60;;;;;;;;;;6173303;28;20022;-74
2022/10/24 08:25:09;;;;;;;11.40;5.75;;;;;;;;;;6153697;28;20026;-75
2022/10/24 08:28:09;;;;;;;;;;;;;;;;;;6161365;28;20055;-75
2022/10/24 08:31:10;;;;;;;9.45;5.57;;;;;;;;;;6169045;28;19914;-76
2022/10/24 08:34:12;;;;;;;11.73;6.07;;;;;;;;;;6161615;28;20109;-74
2022/10/24 08:37:12;;;;;;;8.80;5.45;;;;;;;;;;6163997;28;20026;-76
2022/10/24 08:40:16;;;;;;;11.65;5.82;;;;;;;;;;6168218;28;20030;-74
2022/10/24 08:43:17;;;;;;;14.50;7.40;;;;;;;;;;6171303;28;20082;-74
2022/10/24 08:46:33;;;;;;;11.73;6.67;;;;;;;;;;6170861;28;20475;-73
2022/10/24 08:49:43;;;;;;;11.20;6.00;;;;;;;;;;6171209;28;20306;-74
2022/10/24 08:53:03;;;;;;;10.98;5.97;;;;;;;;;;6169531;28;20678;-74
2022/10/24 08:56:05;;;;;;;11.43;6.60;;;;;;;;;;6162538;28;20110;-74
2022/10/24 08:59:07;;;;;;;14.25;8.45;;;;;;;;;;6171473;28;20031;-75
2022/10/24 09:02:07;;;;;;;15.32;9.43;;;;;;;;;;6169119;28;20026;-74
2022/10/24 09:05:14;;;;;;;16.08;6.25;;;;;;;;;;6170552;28;20042;-74
2022/10/24 09:08:19;;;;;;;11.80;6.45;;;;;;;;;;6170826;28;20034;-74
2022/10/24 09:11:40;;;;;;;12.18;7.03;;;;;;;;;;6155205;28;20023;-74
2022/10/24 09:14:41;;;;;;;13.88;7.32;;;;;;;;;;6159403;28;20105;-75
2022/10/24 09:17:42;;;;;;;;;;;;;;;;;;6153940;28;20019;-74
2022/10/24 09:20:42;;;;;;;9.83;5.23;;;;;;;;;;6158995;28;19906;-74
2022/10/24 09:23:42;;;;;;;8.20;5.27;;;;;;;;;;6172470;28;20390;-74
2022/10/24 09:26:44;;;;;;;11.33;5.23;;;;;;;;;;6155376;28;20055;-74
2022/10/24 09:29:45;;;;;;;10.80;6.70;;;;;;;;;;6172968;28;20426;-75
2022/10/24 09:32:45;;;;;;;11.17;5.57;;;;;;;;;;6172882;28;20019;-73
2022/10/24 09:35:46;;;;;;;10.63;5.77;;;;;;;;;;6159065;28;20379;-74
2022/10/24 09:38:47;;;;;;;10.38;5.40;;;;;;;;;;6172587;28;20032;-75
2022/10/24 09:41:48;;;;;;;14.73;6.28;;;;;;;;;;6173434;28;20022;-74
2022/10/24 09:44:48;;;;;;;9.73;4.67;;;;;;;;;;6171918;28;20019;-74
2022/10/24 09:47:53;;;;;;;10.30;5.82;;;;;;;;;;6173085;28;20023;-74
2022/10/24 09:50:54;;;;;;;10.68;4.68;;;;;;;;;;6186237;28;20038;-74
2022/10/24 09:53:57;;;;;;;10.25;4.90;;;;;;;;;;6162293;28;20061;-73
2022/10/24 09:57:00;;;;;;;17.85;6.57;;;;;;;;;;6170577;28;20111;-74
2022/10/24 10:00:02;;;;;;;10.70;5.03;;;;;;;;;;6172591;28;20147;-74
2022/10/24 10:03:02;;;;;;;;;;;;;;;;;;6172981;28;20019;-74
2022/10/24 10:06:14;;;;;;;8.32;5.07;;;;;;;;;;6152140;28;19914;-75
2022/10/24 10:09:22;;;;;;;13.40;4.57;;;;;;;;;;6163001;28;20035;-75
2022/10/24 10:12:33;;;;;;;9.65;4.90;;;;;;;;;;6164251;28;20107;-74
2022/10/24 10:15:36;;;;;;;12.07;5.30;;;;;;;;;;6158756;28;20054;-74
2022/10/24 10:18:36;;;;;;;10.07;5.60;;;;;;;;;;6161364;28;20023;-74
2022/10/24 10:21:54;;;;;;;10.27;5.18;;;;;;;;;;6160862;28;20046;-73
2022/10/24 10:24:55;;;;;;;10.82;5.47;;;;;;;;;;6162090;28;20027;-75
2022/10/24 10:27:55;;;;;;;10.80;5.47;;;;;;;;;;6153271;28;20037;-74
2022/10/24 10:30:58;;;;;;;7.13;4.80;;;;;;;;;;6156598;28;20031;-73
2022/10/24 10:34:13;;;;;;;10.32;5.15;;;;;;;;;;6155244;28;20031;-73
2022/10/24 10:37:22;;;;;;;10.65;5.00;;;;;;;;;;6170998;28;20242;-74
2022/10/24 10:40:30;;;;;;;11.85;4.93;;;;;;;;;;6163794;28;20027;-74
2022/10/24 10:43:41;;;;;;;14.52;5.93;;;;;;;;;;6166099;28;20492;-74
2022/10/24 10:46:41;;;;;;;12.25;5.20;;;;;;;;;;6165267;28;20027;-74
2022/10/24 10:49:41;;;;;;;8.83;3.97;;;;;;;;;;6175017;28;20042;-74
2022/10/24 10:52:46;;;;;;;8.73;4.77;;;;;;;;;;6161222;28;20019;-74
2022/10/24 10:55:50;;;;;;;13.38;6.18;;;;;;;;;;6154881;28;20482;-74
2022/10/24 10:59:04;;;;;;;8.50;4.40;;;;;;;;;;6167295;28;20027;-74
2022/10/24 11:02:25;;;;;;;10.82;4.97;;;;;;;;;;6173419;28;20026;-74
2022/10/24 11:05:36;;;;;;;8.70;4.18;;;;;;;;;;6166671;28;20144;-74
2022/10/24 11:08:38;;;;;;;16.93;4.90;;;;;;;;;;6175589;28;20027;-74
2022/10/24 11:11:44;;;;;;;14.75;6.95;;;;;;;;;;6150426;28;20057;-75
2022/10/24 11:15:12;;;;;;;16.50;10.00;;;;;;;;;;6174066;28;20027;-75
2022/10/24 11:18:15;;;;;;;10.07;4.50;;;;;;;;;;6158014;28;20146;-75
2022/10/24 11:21:17;;;;;;;9.63;4.22;;;;;;;;;;6164656;28;20022;-74
2022/10/24 11:24:19;;;;;;;7.47;4.47;;;;;;;;;;6151402;28;20023;-75
2022/10/24 11:27:25;;;;;;;9.18;4.97;;;;;;;;;;6163113;28;20037;-75
2022/10/24 11:30:38;;;;;;;8.88;4.95;;;;;;;;;;6160948;28;20550;-74
2022/10/24 11:33:43;;;;;;;8.77;4.25;;;;;;;;;;6163289;28;20545;-74
2022/10/24 11:36:58;;;;;;;10.05;4.15;;;;;;;;;;6167306;28;20380;-75
2022/10/24 11:40:04;;;;;;;8.95;3.90;;;;;;;;;;6168407;28;20015;-74
2022/10/24 11:43:23;;;;;;;11.85;4.20;;;;;;;;;;6170394;28;20416;-74
2022/10/24 11:46:31;;;;;;;12.25;4.53;;;;;;;;;;6169243;28;20033;-75
2022/10/24 11:49:36;;;;;;;9.07;5.55;;;;;;;;;;6171089;28;20483;-74
2022/10/24 11:53:03;;;;;;;8.98;4.80;;;;;;;;;;6144930;28;20027;-75
2022/10/24 11:56:12;;;;;;;8.45;4.72;;;;;;;;;;6158772;28;20046;-74
2022/10/24 11:59:26;;;;;;;12.85;4.82;;;;;;;;;;6168731;28;20040;-74
2022/10/24 12:02:26;;;;;;;9.27;4.32;;;;;;;;;;6171182;28;20427;-74
2022/10/24 12:05:26;;;;;;;12.03;4.90;;;;;;;;;;6169458;28;20030;-75
2022/10/24 12:08:27;;;;;;;8.80;3.80;;;;;;;;;;6164939;28;20472;-75
2022/10/24 12:11:27;;;;;;;;;;;;;;;;;;6166397;28;20439;-75
2022/10/24 12:14:35;;;;;;;9.27;4.65;;;;;;;;;;6168269;28;20326;-75
2022/10/24 12:17:38;;;;;;;9.93;4.15;;;;;;;;;;6162510;28;20098;-75
2022/10/24 12:20:39;;;;;;;8.13;4.28;;;;;;;;;;6167444;28;20459;-75
2022/10/24 12:23:40;;;;;;;11.90;4.47;;;;;;;;;;6159158;28;20038;-75
2022/10/24 12:26:42;;;;;;;12.25;4.88;;;;;;;;;;6156662;28;20027;-75
2022/10/24 12:29:42;;;;;;;9.25;4.45;;;;;;;;;;6172838;28;20383;-75
2022/10/24 12:32:47;;;;;;;6.40;3.43;;;;;;;;;;6150835;28;20026;-75
2022/10/24 12:35:50;;;;;;;6.93;3.78;;;;;;;;;;6162006;28;20398;-75
2022/10/24 12:38:53;;;;;;;6.68;3.50;;;;;;;;;;6152953;28;20035;-75
2022/10/24 12:41:54;;;;;;;6.28;3.72;;;;;;;;;;6158219;28;20029;-74
2022/10/24 12:45:01;;;;;;;6.28;3.42;;;;;;;;;;6163944;28;20484;-74
2022/10/24 12:48:01;;;;;;;11.50;3.85;;;;;;;;;;6161882;28;20027;-75
2022/10/24 12:51:01;;;;;;;6.90;4.03;;;;;;;;;;6168852;28;20065;-75
2022/10/24 12:54:08;;;;;;;8.20;3.42;;;;;;;;;;6159128;28;20086;-75
2022/10/24 12:57:11;;;;;;;7.90;3.50;;;;;;;;;;6171326;28;20498;-76
2022/10/24 13:00:22;;;;;;;10.15;4.00;;;;;;;;;;6172148;28;20068;-75
2022/10/24 13:03:37;;;;;;;7.43;3.78;;;;;;;;;;6161695;28;20019;-76
2022/10/24 13:06:55;;;;;;;7.97;4.32;;;;;;;;;;6165486;28;20085;-76
2022/10/24 13:09:55;;;;;;;10.80;4.32;;;;;;;;;;6156540;28;20023;-75
2022/10/24 13:13:02;;;;;;;6.67;3.70;;;;;;;;;;6167643;28;20019;-75
2022/10/24 13:16:11;;;;;;;7.28;3.28;;;;;;;;;;6163036;28;20023;-74
2022/10/24 13:19:14;;;;;;;10.68;4.35;;;;;;;;;;6149354;28;20039;-74
2022/10/24 13:22:28;;;;;;;11.57;4.25;;;;;;;;;;6161688;28;20019;-74
2022/10/24 13:25:38;;;;;;;9.82;4.95;;;;;;;;;;6160379;28;20011;-74
2022/10/24 13:28:39;;;;;;;9.20;4.50;;;;;;;;;;6141606;28;20025;-74
2022/10/24 13:31:41;;;;;;;11.50;6.20;;;;;;;;;;6163160;28;20279;-74
2022/10/24 13:34:51;;;;;;;13.23;5.05;;;;;;;;;;6161193;28;20019;-74
2022/10/24 13:37:53;;;;;;;8.27;4.72;;;;;;;;;;6165933;28;20114;-74
2022/10/24 13:40:53;;;;;;;8.32;5.28;;;;;;;;;;6156120;28;20089;-74
2022/10/24 13:43:55;;;;;;;10.33;4.80;;;;;;;;;;6155065;28;20495;-75
2022/10/24 13:46:58;;;;;;;7.78;4.43;;;;;;;;;;6167647;28;20916;-74
2022/10/24 13:50:04;;;;;;;11.82;6.15;;;;;;;;;;6154493;28;20384;-74
2022/10/24 13:53:12;;;;;;;9.65;4.45;;;;;;;;;;6167261;28;20026;-74
2022/10/24 13:56:13;;;;;;;9.52;4.43;;;;;;;;;;6160322;28;20043;-74
2022/10/24 13:59:32;;;;;;;6.93;4.15;;;;;;;;;;6153873;28;20033;-74
2022/10/24 14:02:37;;;;;;;8.70;4.72;;;;;;;;;;6166442;28;20019;-74
2022/10/24 14:05:39;;;;;;;7.85;4.85;;;;;;;;;;6157204;28;20435;-73
2022/10/24 14:08:49;;;;;;;9.30;5.53;;;;;;;;;;6160593;28;20395;-74
2022/10/24 14:11:50;;;;;;;11.38;5.60;;;;;;;;;;6162535;28;20098;-74
2022/10/24 14:14:51;;;;;;;9.57;4.37;;;;;;;;;;6159984;28;20382;-73
2022/10/24 14:18:01;;;;;;;9.77;4.75;;;;;;;;;;6145114;28;20126;-74
2022/10/24 14:21:04;;;;;;;10.77;5.18;;;;;;;;;;6162849;28;20019;-74
2022/10/24 14:24:07;;;;;;;10.88;5.93;;;;;;;;;;6164245;28;20117;-74
2022/10/24 14:27:10;;;;;;;14.00;4.85;;;;;;;;;;6151076;28;20077;-74
2022/10/24 14:30:16;;;;;;;13.05;6.13;;;;;;;;;;6172366;28;20475;-75
2022/10/24 14:33:21;;;;;;;9.63;5.70;;;;;;;;;;6147169;28;20033;-74
2022/10/24 14:36:23;;;;;;;10.38;5.75;;;;;;;;;;6165589;28;20046;-74
2022/10/24 14:39:23;;;;;;;12.40;5.25;;;;;;;;;;6162756;28;20023;-75
2022/10/24 14:42:24;;;;;;;10.47;5.97;;;;;;;;;;6158739;28;20034;-74
2022/10/24 14:45:25;;;;;;;9.83;5.63;;;;;;;;;;6149415;28;20027;-73
2022/10/24 14:48:27;;;;;;;10.10;5.38;;;;;;;;;;6152713;28;20022;-74
2022/10/24 14:51:31;;;;;;;11.25;5.55;;;;;;;;;;6160794;28;20023;-74
2022/10/24 14:54:32;;;;;;;14.30;7.40;;;;;;;;;;6151353;28;20467;-74
2022/10/24 14:57:33;;;;;;;16.13;8.13;;;;;;;;;;6153642;28;20015;-74
2022/10/24 15:00:38;;;;;;;12.45;7.43;;;;;;;;;;6159703;28;20023;-74
2022/10/24 15:03:49;;;;;;;16.63;8.77;;;;;;;;;;6164482;28;20022;-74
2022/10/24 15:06:53;;;;;;;20.27;10.13;;;;;;;;;;6125506;28;1055970;-74
2022/10/24 15:09:55;;;;;;;22.38;11.27;;;;;;;;;;6159723;28;20063;-75
2022/10/24 15:12:56;;;;;;;20.95;11.07;;;;;;;;;;6158111;28;20030;-73
2022/10/24 15:15:59;;;;;;;16.20;9.52;;;;;;;;;;6163222;28;20041;-77
2022/10/24 15:19:02;;;;;;;14.63;8.38;;;;;;;;;;6167889;28;20037;-73
2022/10/24 15:22:03;;;;;;;19.27;8.77;;;;;;;;;;6165034;28;20046;-74
2022/10/24 15:25:04;;;;;;;17.83;8.53;;;;;;;;;;6163011;28;20030;-75
2022/10/24 15:28:04;;;;;;;;;;;;;;;;;;6153380;28;20110;-74
2022/10/24 15:31:08;;;;;;;13.27;7.50;;;;;;;;;;6170419;28;19980;-74
2022/10/24 15:34:13;;;;;;;16.77;9.10;;;;;;;;;;6168281;28;20027;-74
2022/10/24 15:37:15;;;;;;;17.65;10.13;;;;;;;;;;6149723;28;20035;-75
2022/10/24 15:40:18;;;;;;;28.55;14.27;;;;;;;;;;6158320;28;20023;-74
2022/10/24 15:43:18;;;;;;;28.15;17.30;;;;;;;;;;6172676;28;20102;-75
2022/10/24 15:46:18;;;;;;;23.03;14.37;;;;;;;;;;6164748;28;20375;-74
2022/10/24 15:49:19;;;;;;;28.33;16.00;;;;;;;;;;6155482;28;20020;-74
2022/10/24 15:52:19;;;;;;;23.73;13.27;;;;;;;;;;6166205;28;20026;-74
2022/10/24 15:55:24;;;;;;;19.70;11.90;;;;;;;;;;6170591;28;20027;-74
2022/10/24 15:58:24;;;;;;;16.98;10.27;;;;;;;;;;6174158;28;20023;-75
2022/10/24 16:01:28;;;;;;;20.07;12.50;;;;;;;;;;6153666;28;20712;-74
2022/10/24 16:04:31;;;;;;;25.52;12.43;;;;;;;;;;6170494;28;20027;-74
2022/10/24 16:07:31;;;;;;;23.45;12.32;;;;;;;;;;6166942;28;20055;-74
2022/10/24 16:10:31;;;;;;;21.20;14.90;;;;;;;;;;6177782;28;20449;-74
2022/10/24 16:13:31;;;;;;;26.52;14.20;;;;;;;;;;6163768;28;20054;-74
2022/10/24 16:16:32;;;;;;;26.40;14.93;;;;;;;;;;6169055;28;20406;-76
2022/10/24 16:19:32;;;;;;;26.83;16.10;;;;;;;;;;6171041;28;20027;-75
2022/10/24 16:22:32;;;;;;;25.63;16.90;;;;;;;;;;6155393;28;20030;-74
2022/10/24 16:25:34;;;;;;;26.20;17.38;;;;;;;;;;6163342;28;20058;-74
2022/10/24 16:28:35;;;;;;;30.40;17.20;;;;;;;;;;6161664;28;20049;-74
2022/10/24 16:31:35;;;;;;;28.40;17.90;;;;;;;;;;6168467;28;20507;-74
2022/10/24 16:34:35;;;;;;;28.83;18.77;;;;;;;;;;6174291;28;20027;-74
2022/10/24 16:37:36;;;;;;;26.00;15.87;;;;;;;;;;6160750;28;20019;-74
2022/10/24 16:40:37;;;;;;;25.67;13.37;;;;;;;;;;6173797;28;20037;-74
2022/10/24 16:43:37;;;;;;;17.48;11.40;;;;;;;;;;6163703;28;20034;-75
2022/10/24 16:46:38;;;;;;;19.10;12.02;;;;;;;;;;6172702;28;20015;-74
2022/10/24 16:49:38;;;;;;;19.80;12.60;;;;;;;;;;6169543;28;20027;-74
2022/10/24 16:52:38;;;;;;;20.80;14.63;;;;;;;;;;6166852;28;20023;-74
2022/10/24 16:55:38;;;;;;;24.23;14.33;;;;;;;;;;6159125;28;20034;-75
2022/10/24 16:58:39;;;;;;;21.73;12.80;;;;;;;;;;6172285;28;20042;-74
2022/10/24 17:01:39;;;;;;;18.17;12.97;;;;;;;;;;6173779;28;20046;-74
2022/10/24 17:04:41;;;;;;;25.60;15.90;;;;;;;;;;6172089;28;20065;-75
2022/10/24 17:07:42;;;;;;;24.33;12.98;;;;;;;;;;6173030;28;20527;-75
2022/10/24 17:10:42;;;;;;;27.07;16.40;;;;;;;;;;6172110;28;20035;-74
2022/10/24 17:13:43;;;;;;;22.83;14.23;;;;;;;;;;6171405;28;20027;-75
2022/10/24 17:16:43;;;;;;;24.60;15.35;;;;;;;;;;6171053;28;20018;-75
2022/10/24 17:19:47;;;;;;;25.57;16.70;;;;;;;;;;6169552;28;20022;-74
2022/10/24 17:22:47;;;;;;;27.58;14.80;;;;;;;;;;6172274;28;20065;-74
2022/10/24 17:25:47;;;;;;;22.97;14.07;;;;;;;;;;6170888;28;20046;-75
2022/10/24 17:28:47;;;;;;;24.70;15.03;;;;;;;;;;6150010;28;20026;-74
2022/10/24 17:31:48;;;;;;;24.27;15.10;;;;;;;;;;6164922;28;20361;-74
2022/10/24 17:34:52;;;;;;;42.87;21.07;;;;;;;;;;6169378;28;20026;-74
2022/10/24 17:37:58;;;;;;;36.90;22.17;;;;;;;;;;6166327;28;20484;-74
2022/10/24 17:41:00;;;;;;;35.67;18.83;;;;;;;;;;6148629;28;20554;-74
2022/10/24 17:44:01;;;;;;;31.23;19.63;;;;;;;;;;6157640;28;20026;-74
2022/10/24 17:47:02;;;;;;;28.13;15.47;;;;;;;;;;6167795;28;20019;-74
2022/10/24 17:50:02;;;;;;;34.90;18.47;;;;;;;;;;6170350;28;20065;-74
2022/10/24 17:53:03;;;;;;;34.97;20.63;;;;;;;;;;6168799;28;20015;-74
2022/10/24 17:56:03;;;;;;;38.60;19.87;;;;;;;;;;6172342;28;20019;-74